Prentice, WI (54556)

9:58 AM CST on February 06, 2016 (GMT -0600)
APRSWXNET | | Change Station
CLOSE
Current Station
Personal Weather Station
Location: Phillips, WI
Elevation: 1541 ft
Nearby Weather Stations

Elev 1541 ft 45.64 °N, 90.34 °W | Updated 32 minutes ago

Overcast
Overcast
24 °F
Feels Like 24 °F
N
1
Wind Variable Wind from West
Gusts 5.0 mph

Today
High -- | Low -- °F
--% Chance of Precip.
Yesterday
High -- | Low -- °F
Precip. -- in
Pressure 30.04 in
Visibility 7.0 miles
Clouds Overcast 900 ft
Windchill 24 °F
Dew Point 22 °F
Humidity 92%
Rainfall in
Snow Depth Not available.
7:16 AM 5:14 PM
Waning Crescent, 5% visible
METAR KPBH 061535Z AUTO 23007KT 7SM OVC009 M05/M07 A3004 RMK AO2 T10531068
Pressure 30.04 in
Visibility 7.0 miles
Clouds Overcast 900 ft
Windchill 24 °F
Dew Point 22 °F
Humidity 92%
Rainfall in
Snow Depth Not available.
7:16 AM 5:14 PM
Waning Crescent, 5% visible
METAR KPBH 061535Z AUTO 23007KT 7SM OVC009 M05/M07 A3004 RMK AO2 T10531068

10-Day Weather Forecast

Almanac

Astronomy

Feb. 06, 2016 Rise Set
Actual Time
Civil Twilight
Nautical Twilight
Astronomical Twilight
Moon
Length of Visible Light
Length of Day
Tomorrow will be .
, % of the Moon is Illuminated

Today's Extremes

State Highs State Lows

Community

WunderPhotos

Upload Photos

1,890,987 photos uploaded!

WunderBlog® & News

Nearby

Air Quality

  Air Quality AQ Index Pollutant
Not available.

Snow Depth

Station Depth Elevation

Earthquake Activity

City Distance Mag. Time & Date
Minimum magnitude displayed is 2.5.

Coastal Water Temperatures

Place Temperature

Stations

Nearby Weather Stations

Station Location Temp. Windchill Dew Point Humidity Wind Precip. Elev Updated Type
                   

Watches & Warnings

There are currently no watches in effect.